Terminal Aerodrome Forecast
Issued by NWS

Home | Current Version | Previous Version | Text Only | Print | Product List | Glossary On
Versions: 1 2 3 4 5 6 7 8 9 10 11 12 13
000
FTUS45 KABQ 282300
TAFSAF
TAF
KSAF 282338Z 2900/2924 36008KT P6SM BKN200
     FM291200 12012KT P6SM FEW040 BKN200
     FM291700 12013G19KT P6SM FEW040 BKN100=

USA.gov is the U.S. government's official web portal to all federal, state and local government web resources and services.